createdAt,value
2024-03-09T00:00:32.374Z,91.89
2024-03-09T00:01:32.517Z,90.24
2024-03-09T00:02:32.686Z,90.30
2024-03-09T00:03:32.935Z,90.51
2024-03-09T00:04:32.792Z,90.89
2024-03-09T00:05:32.901Z,94.15
2024-03-09T00:55:46.322Z,92.31
2024-03-09T00:56:33.197Z,98.57
2024-03-09T00:57:33.194Z,123.28
2024-03-09T00:58:33.224Z,157.89
2024-03-09T00:59:33.202Z,197.33
2024-03-09T01:00:33.200Z,236.87
2024-03-09T01:01:33.231Z,225.89
2024-03-09T01:02:33.224Z,200.67
2024-03-09T01:03:33.367Z,187.88
2024-03-09T01:04:33.460Z,178.40
2024-03-09T01:05:33.512Z,168.11
2024-03-09T01:06:33.612Z,159.39
2024-03-09T01:07:33.733Z,151.21
2024-03-09T01:08:33.814Z,145.74
2024-03-09T01:09:33.925Z,140.70
2024-03-09T01:10:34.083Z,135.37
2024-03-09T01:11:34.216Z,131.26
2024-03-09T01:12:34.174Z,128.30
2024-03-09T01:13:34.296Z,126.40
2024-03-09T01:14:34.364Z,123.28
2024-03-09T01:15:34.472Z,119.75
2024-03-09T01:16:34.579Z,115.76
2024-03-09T01:17:34.720Z,113.04
2024-03-09T01:18:34.747Z,113.43
2024-03-09T01:19:34.851Z,111.06
2024-03-09T01:20:34.918Z,109.45
2024-03-09T01:21:35.022Z,107.26
2024-03-09T01:22:35.145Z,107.19
2024-03-09T01:23:35.221Z,105.42
2024-03-09T01:24:35.337Z,102.37
2024-03-09T01:25:35.420Z,102.13
2024-03-09T01:26:35.527Z,100.88
2024-03-09T01:27:35.616Z,99.14
2024-03-09T01:28:35.704Z,99.73
2024-03-09T01:29:35.792Z,97.46
2024-03-09T01:30:35.882Z,97.29
2024-03-09T01:31:35.981Z,97.16
2024-03-09T01:32:36.099Z,96.27
2024-03-09T01:33:36.150Z,94.71
2024-03-09T01:34:36.272Z,93.12
2024-03-09T01:35:36.345Z,93.38
2024-03-09T01:36:36.447Z,93.29
2024-03-09T01:37:36.566Z,94.78
2024-03-09T01:38:36.644Z,92.63
2024-03-09T01:39:36.733Z,92.70
2024-03-09T01:40:36.896Z,94.54
2024-03-09T01:41:36.937Z,91.16
2024-03-09T01:42:37.045Z,92.62
2024-03-09T01:43:37.148Z,90.80
2024-03-09T01:44:37.228Z,90.19
2024-03-09T01:45:37.296Z,90.04
2024-03-09T01:46:37.428Z,89.54
2024-03-09T01:47:37.518Z,90.27
2024-03-09T01:48:37.576Z,89.20
2024-03-09T01:49:37.677Z,92.09
2024-03-09T01:50:37.769Z,88.34
2024-03-09T01:51:37.861Z,87.88
2024-03-09T01:52:37.994Z,88.48
2024-03-09T01:53:38.041Z,87.98
2024-03-09T01:54:41.228Z,87.53
2024-03-09T01:55:38.261Z,87.56
2024-03-09T01:56:38.157Z,87.64
2024-03-09T01:57:38.163Z,88.01
2024-03-09T01:58:38.197Z,86.41
2024-03-09T01:59:38.184Z,88.26
2024-03-09T02:00:38.171Z,88.13
2024-03-09T02:01:38.228Z,88.26
2024-03-09T02:02:38.157Z,87.21
2024-03-09T02:03:38.262Z,87.37
2024-03-09T02:04:38.373Z,87.09
2024-03-09T02:05:38.371Z,87.16
2024-03-09T02:06:38.400Z,87.44
2024-03-09T02:07:38.439Z,85.67
2024-03-09T02:08:38.435Z,85.72
2024-03-09T02:09:38.457Z,87.71
2024-03-09T02:10:38.535Z,85.16
2024-03-09T02:11:38.634Z,86.65
2024-03-09T02:12:38.651Z,85.74
2024-03-09T02:13:38.789Z,84.73
2024-03-09T02:14:38.885Z,84.47
2024-03-09T02:15:38.973Z,85.94
2024-03-09T02:16:39.087Z,86.18
2024-03-09T02:17:39.155Z,87.81
2024-03-09T02:18:39.216Z,86.83
2024-03-09T02:19:39.360Z,85.32
2024-03-09T02:20:39.427Z,84.79
2024-03-09T02:21:39.502Z,83.47
2024-03-09T02:22:39.705Z,86.01
2024-03-09T02:23:39.701Z,85.41
2024-03-09T02:24:39.787Z,83.12
2024-03-09T02:25:39.908Z,83.83
2024-03-09T02:26:39.966Z,86.50
2024-03-09T02:27:40.072Z,84.98
2024-03-09T02:28:40.179Z,83.85
2024-03-09T02:29:40.277Z,84.51
2024-03-09T02:30:40.351Z,85.51
2024-03-09T02:31:40.507Z,82.98
2024-03-09T02:32:40.615Z,83.86
2024-03-09T02:33:40.621Z,84.77
2024-03-09T02:34:40.748Z,85.54
2024-03-09T02:35:40.814Z,85.15
2024-03-09T02:36:40.905Z,82.29
2024-03-09T02:37:41.110Z,83.67
2024-03-09T02:38:41.114Z,83.44
2024-03-09T02:39:41.213Z,82.69
2024-03-09T02:40:41.331Z,85.36
2024-03-09T02:41:41.409Z,84.43
2024-03-09T02:42:41.503Z,85.66
2024-03-09T02:43:41.666Z,83.06
2024-03-09T02:44:41.703Z,82.91
2024-03-09T02:45:41.797Z,83.84
2024-03-09T02:46:41.938Z,82.79
2024-03-09T02:47:42.033Z,84.92
2024-03-09T02:48:42.064Z,84.45
2024-03-09T02:49:42.167Z,84.39
2024-03-09T02:50:42.244Z,83.61
2024-03-09T02:51:42.352Z,84.56
2024-03-09T02:52:42.456Z,84.31
2024-03-09T02:53:42.524Z,84.41
2024-03-09T02:54:42.620Z,85.30
2024-03-09T02:55:42.748Z,82.30
2024-03-09T02:56:42.804Z,82.33
2024-03-09T02:57:42.896Z,82.46
2024-03-09T02:58:43.042Z,83.25
2024-03-09T02:59:43.094Z,84.78
2024-03-09T03:00:43.221Z,82.23
2024-03-09T03:01:43.306Z,82.28
2024-03-09T03:02:43.396Z,82.28
2024-03-09T03:03:43.475Z,82.81
2024-03-09T03:04:43.703Z,82.10
2024-03-09T03:05:43.698Z,83.25
2024-03-09T03:06:43.759Z,82.13
2024-03-09T03:07:43.878Z,85.45
2024-03-09T03:08:43.948Z,83.42
2024-03-09T03:09:44.048Z,83.63
2024-03-09T03:10:44.247Z,84.11
2024-03-09T03:11:44.834Z,82.03
2024-03-09T03:12:44.271Z,83.94
2024-03-09T03:13:44.387Z,82.76
2024-03-09T03:14:44.331Z,82.77
2024-03-09T03:15:44.356Z,83.26
2024-03-09T03:16:44.464Z,83.45
2024-03-09T03:17:44.457Z,82.74
2024-03-09T03:18:44.455Z,85.54
2024-03-09T03:19:44.541Z,84.64
2024-03-09T03:20:44.627Z,84.03
2024-03-09T03:21:44.700Z,81.47
2024-03-09T03:22:44.807Z,83.12
2024-03-09T03:23:44.879Z,83.52
2024-03-09T03:24:45.064Z,83.65
2024-03-09T03:25:45.148Z,83.66
2024-03-09T03:26:45.181Z,82.62
2024-03-09T03:27:45.266Z,82.27
2024-03-09T03:28:45.401Z,82.46
2024-03-09T03:29:45.463Z,82.07
2024-03-09T03:30:45.545Z,82.98
2024-03-09T03:31:45.689Z,83.13
2024-03-09T03:32:45.789Z,83.69
2024-03-09T03:33:45.857Z,82.45
2024-03-09T03:34:46.051Z,82.49
2024-03-09T03:35:46.040Z,83.79
2024-03-09T03:36:46.123Z,82.65
2024-03-09T03:37:46.258Z,81.51
2024-03-09T03:38:46.323Z,82.19
2024-03-09T03:39:46.417Z,82.25
2024-03-09T03:40:46.598Z,82.79
2024-03-09T03:41:46.636Z,82.91
2024-03-09T03:42:46.792Z,81.91
2024-03-09T03:43:46.976Z,82.33
2024-03-09T03:44:46.895Z,81.13
2024-03-09T03:45:47.007Z,81.68
2024-03-09T03:46:47.114Z,81.64
2024-03-09T03:47:47.242Z,84.47
2024-03-09T03:48:48.002Z,82.32
2024-03-09T03:49:47.354Z,81.83
2024-03-09T03:50:47.351Z,83.89
2024-03-09T03:51:47.350Z,84.80
2024-03-09T03:52:47.406Z,83.23
2024-03-09T03:53:47.396Z,83.05
2024-03-09T03:54:47.440Z,84.78
2024-03-09T03:55:47.634Z,82.21
2024-03-09T03:56:47.649Z,81.60
2024-03-09T03:57:51.677Z,84.44
2024-03-09T03:58:47.759Z,83.74
2024-03-09T03:59:47.732Z,84.75
2024-03-09T04:00:47.776Z,82.98
2024-03-09T04:01:47.764Z,82.71
2024-03-09T04:02:47.734Z,84.75
2024-03-09T04:03:47.748Z,83.26
2024-03-09T04:04:47.769Z,82.51
2024-03-09T04:05:47.751Z,84.59
2024-03-09T04:06:47.778Z,84.04
2024-03-09T04:07:47.776Z,83.79
2024-03-09T04:08:47.777Z,81.67
2024-03-09T04:09:47.813Z,83.29
2024-03-09T04:10:48.146Z,82.93
2024-03-09T04:11:48.031Z,86.28
2024-03-09T04:12:48.011Z,85.55
2024-03-09T04:13:48.124Z,83.46
2024-03-09T04:14:48.200Z,84.72
2024-03-09T04:15:48.278Z,84.77
2024-03-09T04:16:48.454Z,86.36
2024-03-09T04:17:48.545Z,81.21
2024-03-09T04:18:48.575Z,84.61
2024-03-09T04:19:48.704Z,83.42
2024-03-09T04:20:48.775Z,80.45
2024-03-09T04:21:48.964Z,83.71
2024-03-09T04:22:49.004Z,81.92
2024-03-09T04:23:49.043Z,83.15
2024-03-09T04:24:49.132Z,83.64
2024-03-09T04:25:49.249Z,82.05
2024-03-09T04:26:49.316Z,83.06
2024-03-09T04:27:49.416Z,83.68
2024-03-09T04:28:49.557Z,83.72
2024-03-09T04:29:49.618Z,84.97
2024-03-09T04:30:49.713Z,82.73
2024-03-09T04:31:49.832Z,85.44
2024-03-09T04:32:49.913Z,82.97
2024-03-09T04:33:49.975Z,84.21
2024-03-09T04:34:50.085Z,83.79
2024-03-09T04:35:50.184Z,84.58
2024-03-09T04:36:50.302Z,82.49
2024-03-09T04:37:50.381Z,84.64
2024-03-09T04:38:50.507Z,86.00
2024-03-09T04:39:50.618Z,85.54
2024-03-09T04:40:51.523Z,85.46
2024-03-09T04:41:50.672Z,86.59
2024-03-09T04:42:50.692Z,84.97
2024-03-09T04:43:50.811Z,86.01
2024-03-09T04:44:50.742Z,85.64
2024-03-09T04:45:50.766Z,85.21
2024-03-09T04:46:58.045Z,50.00
2024-03-09T04:47:59.006Z,50.00
2024-03-09T04:48:58.996Z,50.00
2024-03-09T04:49:59.028Z,50.00
2024-03-09T04:50:58.987Z,50.00
2024-03-09T04:51:59.057Z,51.71
2024-03-09T04:52:59.076Z,50.84
2024-03-09T04:53:59.020Z,53.33
2024-03-09T04:54:58.993Z,51.87
2024-03-09T04:56:02.035Z,52.33
2024-03-09T04:56:58.998Z,52.38
2024-03-09T04:57:58.999Z,52.76
2024-03-09T04:58:59.002Z,52.95
2024-03-09T04:59:59.005Z,52.60
2024-03-09T05:00:59.021Z,52.80
2024-03-09T05:01:59.084Z,53.11
2024-03-09T05:02:59.018Z,52.64
2024-03-09T05:03:59.015Z,54.11
2024-03-09T05:04:59.066Z,50.47
2024-03-09T05:05:59.041Z,52.92
2024-03-09T05:06:59.045Z,51.29
2024-03-09T05:07:59.120Z,53.80
2024-03-09T05:08:59.056Z,52.02
2024-03-09T05:09:59.083Z,52.77
2024-03-09T05:10:59.104Z,52.43
2024-03-09T05:11:59.121Z,51.24
2024-03-09T05:12:59.064Z,53.22
2024-03-09T05:13:59.151Z,51.93
2024-03-09T05:14:59.201Z,55.38
2024-03-09T05:15:59.280Z,53.16
2024-03-09T05:16:59.399Z,51.82
2024-03-09T05:17:59.600Z,51.72
2024-03-09T05:18:59.582Z,53.16
2024-03-09T05:19:59.669Z,52.00
2024-03-09T05:20:59.680Z,55.01
2024-03-09T05:21:59.749Z,54.41
2024-03-09T05:22:59.881Z,52.18
2024-03-09T05:23:59.937Z,54.14
2024-03-09T05:25:00.002Z,52.03
2024-03-09T05:26:00.131Z,52.32
2024-03-09T05:27:00.139Z,51.84
2024-03-09T05:28:00.236Z,51.70
2024-03-09T05:29:00.358Z,51.41
2024-03-09T05:30:00.458Z,54.32
2024-03-09T05:31:00.468Z,54.15
2024-03-09T05:32:00.600Z,50.88
2024-03-09T05:33:00.646Z,53.52
2024-03-09T05:34:00.709Z,57.54
2024-03-09T05:35:00.937Z,55.04
2024-03-09T05:36:00.887Z,55.48
2024-03-09T05:37:00.959Z,52.35
2024-03-09T05:38:01.093Z,53.72
2024-03-09T05:39:01.134Z,54.88
2024-03-09T05:40:01.205Z,54.77
2024-03-09T05:41:01.295Z,55.22
2024-03-09T05:42:01.406Z,55.99
2024-03-09T05:43:01.416Z,55.73
2024-03-09T05:44:01.539Z,55.80
2024-03-09T05:45:01.577Z,53.15
2024-03-09T05:46:01.655Z,51.96
2024-03-09T05:47:01.791Z,55.78
2024-03-09T05:48:01.860Z,55.06
2024-03-09T05:49:01.923Z,56.57
2024-03-09T05:50:02.051Z,53.70
2024-03-09T05:51:02.069Z,53.67
2024-03-09T05:52:02.190Z,56.11
2024-03-09T05:53:02.771Z,52.52
2024-03-09T05:54:02.269Z,57.07
2024-03-09T05:55:02.295Z,52.45
2024-03-09T05:56:02.453Z,53.17
2024-03-09T05:57:02.385Z,56.05
2024-03-09T05:58:02.460Z,54.80
2024-03-09T05:59:02.522Z,53.98
2024-03-09T06:00:02.529Z,53.40
2024-03-09T06:01:02.602Z,54.59
2024-03-09T06:02:02.706Z,55.32
2024-03-09T06:03:02.630Z,54.59
2024-03-09T06:04:02.658Z,55.57
2024-03-09T06:05:02.767Z,53.20
2024-03-09T06:06:02.811Z,54.82
2024-03-09T06:07:02.884Z,55.43
2024-03-09T06:08:04.001Z,55.67
2024-03-09T06:09:03.071Z,55.24
2024-03-09T06:10:03.097Z,54.38
2024-03-09T06:11:03.251Z,52.24
2024-03-09T06:12:03.358Z,54.67
2024-03-09T06:13:03.202Z,53.49
2024-03-09T06:14:03.342Z,55.27
2024-03-09T06:15:03.277Z,56.70
2024-03-09T06:16:03.334Z,55.05
2024-03-09T06:17:03.516Z,57.16
2024-03-09T06:18:03.658Z,57.32
2024-03-09T06:19:03.560Z,56.67
2024-03-09T06:20:03.675Z,58.44
2024-03-09T06:21:03.696Z,57.22
2024-03-09T06:22:03.770Z,55.34
2024-03-09T06:23:03.942Z,52.12
2024-03-09T06:24:03.921Z,50.39
2024-03-09T06:25:03.988Z,51.34
2024-03-09T06:26:04.220Z,51.60
2024-03-09T06:27:04.135Z,51.66
2024-03-09T06:28:04.338Z,52.37
2024-03-09T06:29:04.301Z,52.32
2024-03-09T06:30:04.415Z,50.11
2024-03-09T06:31:04.448Z,52.69
2024-03-09T06:32:04.520Z,51.76
2024-03-09T06:33:04.675Z,52.79
2024-03-09T06:34:04.629Z,54.53
2024-03-09T06:35:04.793Z,52.55
2024-03-09T06:36:04.774Z,51.96
2024-03-09T06:37:04.831Z,50.33
2024-03-09T06:38:05.006Z,52.22
2024-03-09T06:39:04.974Z,50.48
2024-03-09T06:40:05.053Z,54.58
2024-03-09T06:41:05.150Z,51.94
2024-03-09T06:42:05.212Z,53.08
2024-03-09T06:43:05.269Z,53.44
2024-03-09T06:44:05.421Z,51.46
2024-03-09T06:45:05.431Z,52.90
2024-03-09T06:46:05.601Z,52.14
2024-03-09T06:47:05.604Z,51.44
2024-03-09T06:48:06.178Z,50.00
2024-03-09T06:49:05.692Z,50.00
2024-03-09T06:50:05.759Z,54.02
2024-03-09T06:51:05.798Z,51.76
2024-03-09T06:52:05.859Z,54.62
2024-03-09T06:53:06.221Z,52.07
2024-03-09T06:54:06.019Z,52.79
2024-03-09T06:55:06.029Z,50.81
2024-03-09T06:56:06.088Z,52.69
2024-03-09T06:57:06.147Z,51.91
2024-03-09T06:58:06.198Z,51.24
2024-03-09T06:59:06.273Z,53.99
2024-03-09T07:00:06.317Z,53.26
2024-03-09T07:01:06.430Z,53.76
2024-03-09T07:02:06.463Z,53.34
2024-03-09T07:03:07.245Z,52.09
2024-03-09T07:04:06.512Z,50.00
2024-03-09T07:05:06.596Z,52.85
2024-03-09T07:06:06.640Z,52.93
2024-03-09T07:07:06.679Z,54.33
2024-03-09T07:08:06.830Z,52.55
2024-03-09T07:09:06.791Z,50.00
2024-03-09T07:10:06.878Z,51.59
2024-03-09T07:11:06.929Z,51.78
2024-03-09T07:12:07.024Z,50.00
2024-03-09T07:13:07.146Z,53.47
2024-03-09T07:14:07.195Z,52.66
2024-03-09T07:15:07.130Z,55.57
2024-03-09T07:16:07.210Z,52.54
2024-03-09T07:17:07.335Z,53.92
2024-03-09T07:18:08.445Z,52.67
2024-03-09T07:19:07.291Z,55.54
2024-03-09T07:20:07.556Z,55.22
2024-03-09T07:21:07.323Z,54.14
2024-03-09T07:22:07.314Z,54.40
2024-03-09T07:23:08.181Z,52.93
2024-03-09T07:24:07.357Z,54.66
2024-03-09T07:25:08.154Z,55.92
2024-03-09T07:26:07.394Z,54.90
2024-03-09T07:27:07.348Z,52.54
2024-03-09T07:28:07.370Z,53.59
2024-03-09T07:29:07.412Z,54.91
2024-03-09T07:30:08.165Z,52.95
2024-03-09T07:31:07.366Z,53.19
2024-03-09T07:32:08.529Z,53.46
2024-03-09T07:33:07.358Z,55.45
2024-03-09T07:34:07.409Z,54.81
2024-03-09T07:35:07.469Z,56.51
2024-03-09T07:36:07.371Z,55.12
2024-03-09T07:37:07.375Z,57.37
2024-03-09T07:38:07.474Z,53.21
2024-03-09T07:39:07.369Z,56.60
2024-03-09T07:40:07.387Z,54.44
2024-03-09T07:41:07.418Z,53.24
2024-03-09T07:42:07.371Z,57.20
2024-03-09T07:43:07.373Z,54.22
2024-03-09T07:44:07.485Z,56.00
2024-03-09T07:45:07.577Z,52.31
2024-03-09T07:46:07.416Z,55.37
2024-03-09T07:47:07.520Z,55.16
2024-03-09T07:48:07.452Z,54.73
2024-03-09T07:49:07.519Z,53.69
2024-03-09T07:50:07.547Z,51.96
2024-03-09T07:51:07.408Z,53.44
2024-03-09T07:52:07.436Z,52.40
2024-03-09T07:53:07.661Z,53.32
2024-03-09T07:54:07.470Z,54.21
2024-03-09T07:55:07.572Z,52.64
2024-03-09T07:56:08.880Z,53.61
2024-03-09T07:57:07.484Z,54.07
2024-03-09T07:58:14.553Z,53.36
2024-03-09T07:59:07.505Z,53.41
2024-03-09T08:00:08.262Z,52.53
2024-03-09T08:01:08.164Z,53.46
2024-03-09T08:02:07.790Z,50.74
2024-03-09T08:03:08.056Z,51.15
2024-03-09T08:04:07.967Z,52.88
2024-03-09T08:05:08.170Z,52.54
2024-03-09T08:06:08.543Z,55.75
2024-03-09T08:07:08.669Z,56.75
2024-03-09T08:08:08.246Z,54.04
2024-03-09T08:09:07.834Z,53.25
2024-03-09T08:10:08.145Z,52.06
2024-03-09T08:11:08.106Z,54.05
2024-03-09T08:12:08.543Z,52.97
2024-03-09T08:13:08.524Z,52.98
2024-03-09T08:14:08.494Z,52.18
2024-03-09T08:15:08.682Z,54.15
2024-03-09T08:16:08.997Z,54.50
2024-03-09T08:17:08.632Z,52.54
2024-03-09T08:18:08.891Z,51.98
2024-03-09T08:19:08.786Z,53.27
2024-03-09T08:20:08.678Z,56.50
2024-03-09T08:21:09.245Z,53.53
2024-03-09T08:22:08.841Z,52.26
2024-03-09T08:23:09.091Z,54.83
2024-03-09T08:24:08.754Z,52.63
2024-03-09T08:25:09.146Z,51.30
2024-03-09T08:26:09.068Z,52.21
2024-03-09T08:27:09.273Z,55.19
2024-03-09T08:28:08.584Z,52.15
2024-03-09T08:29:08.690Z,54.57
2024-03-09T08:30:08.701Z,53.67
2024-03-09T08:31:08.750Z,52.96
2024-03-09T08:32:08.851Z,53.14
2024-03-09T08:33:08.912Z,55.38
2024-03-09T08:34:08.933Z,55.72
2024-03-09T08:35:09.036Z,51.78
2024-03-09T08:36:09.065Z,51.91
2024-03-09T08:37:09.108Z,51.60
2024-03-09T08:38:09.226Z,51.80
2024-03-09T08:39:09.214Z,51.48
2024-03-09T08:40:09.297Z,50.96
2024-03-09T08:41:09.398Z,53.33
2024-03-09T08:42:09.388Z,51.74
2024-03-09T08:43:09.453Z,50.61
2024-03-09T08:44:09.584Z,50.28
2024-03-09T08:45:09.575Z,50.87
2024-03-09T08:46:09.642Z,51.20
2024-03-09T08:47:09.745Z,53.61
2024-03-09T08:48:09.764Z,50.37
2024-03-09T08:49:09.811Z,51.54
2024-03-09T08:50:09.981Z,52.30
2024-03-09T08:51:09.948Z,53.82
2024-03-09T08:52:10.106Z,50.27
2024-03-09T08:53:10.075Z,51.93
2024-03-09T08:54:10.132Z,53.24
2024-03-09T08:55:10.156Z,52.61
2024-03-09T08:56:10.234Z,50.00
2024-03-09T08:57:10.265Z,51.32
2024-03-09T08:58:10.309Z,50.41
2024-03-09T08:59:11.552Z,52.18
2024-03-09T09:00:10.416Z,52.40
2024-03-09T09:01:10.498Z,52.23
2024-03-09T09:02:10.531Z,53.16
2024-03-09T09:03:10.532Z,54.30
2024-03-09T09:04:10.589Z,52.53
2024-03-09T09:05:10.686Z,54.37
2024-03-09T09:06:10.720Z,54.40
2024-03-09T09:07:10.721Z,54.21
2024-03-09T09:08:10.811Z,53.60
2024-03-09T09:09:10.901Z,52.98
2024-03-09T09:10:10.907Z,51.67
2024-03-09T09:11:10.994Z,51.42
2024-03-09T09:12:11.037Z,52.29
2024-03-09T09:13:12.598Z,52.48
2024-03-09T09:14:11.181Z,50.98
2024-03-09T09:15:11.061Z,52.34
2024-03-09T09:16:11.051Z,53.27
2024-03-09T09:17:11.112Z,51.20
2024-03-09T09:18:11.093Z,54.41
2024-03-09T09:19:11.065Z,54.13
2024-03-09T09:20:11.161Z,53.04
2024-03-09T09:21:11.072Z,53.98
2024-03-09T09:22:11.095Z,54.94
2024-03-09T09:23:11.096Z,55.82
2024-03-09T09:24:11.086Z,55.77
2024-03-09T09:25:11.119Z,54.65
2024-03-09T09:26:11.144Z,53.62
2024-03-09T09:27:11.090Z,55.07
2024-03-09T09:28:11.104Z,52.83
2024-03-09T09:29:11.168Z,53.44
2024-03-09T09:30:11.126Z,54.47
2024-03-09T09:31:11.096Z,52.02
2024-03-09T09:32:11.252Z,51.54
2024-03-09T09:33:11.122Z,50.00
2024-03-09T09:34:11.097Z,50.59
2024-03-09T09:35:11.313Z,53.81
2024-03-09T09:36:11.130Z,52.67
2024-03-09T09:37:11.165Z,52.08
2024-03-09T09:38:11.248Z,52.53
2024-03-09T09:39:11.932Z,50.52
2024-03-09T09:40:11.197Z,50.00
2024-03-09T09:41:11.341Z,51.56
2024-03-09T09:42:11.302Z,53.09
2024-03-09T09:43:11.339Z,52.13
2024-03-09T09:44:11.478Z,51.91
2024-03-09T09:45:11.465Z,54.27
2024-03-09T09:46:11.655Z,54.68
2024-03-09T09:47:11.621Z,56.01
2024-03-09T09:48:11.653Z,55.06
2024-03-09T09:49:11.668Z,54.06
2024-03-09T09:50:11.787Z,52.59
2024-03-09T09:51:11.761Z,56.48
2024-03-09T09:52:11.805Z,50.82
2024-03-09T09:53:11.979Z,53.20
2024-03-09T09:54:11.922Z,51.45
2024-03-09T09:55:11.965Z,52.72
2024-03-09T09:56:12.155Z,51.91
2024-03-09T09:57:12.091Z,51.09
2024-03-09T09:58:12.187Z,52.29
2024-03-09T09:59:12.389Z,54.87
2024-03-09T10:00:12.301Z,49.78
2024-03-09T10:01:12.378Z,52.96
2024-03-09T10:02:12.446Z,54.54
2024-03-09T10:03:12.494Z,55.10
2024-03-09T10:04:12.571Z,51.12
2024-03-09T10:05:12.658Z,51.84
2024-03-09T10:06:12.707Z,52.24
2024-03-09T10:07:12.772Z,53.19
2024-03-09T10:08:13.305Z,51.84
2024-03-09T10:09:12.900Z,51.83
2024-03-09T10:10:12.991Z,51.15
2024-03-09T10:11:13.099Z,51.11
2024-03-09T10:12:13.100Z,49.96
2024-03-09T10:13:13.127Z,52.48
2024-03-09T10:14:13.321Z,53.88
2024-03-09T10:15:13.243Z,53.04
2024-03-09T10:16:13.329Z,50.45
2024-03-09T10:17:13.499Z,52.74
2024-03-09T10:18:13.533Z,51.84
2024-03-09T10:19:13.468Z,53.17
2024-03-09T10:20:13.605Z,53.50
2024-03-09T10:21:13.660Z,53.46
2024-03-09T10:22:13.672Z,51.08
2024-03-09T10:23:14.115Z,53.66
2024-03-09T10:24:13.807Z,51.54
2024-03-09T10:25:13.817Z,50.00
2024-03-09T10:26:13.992Z,52.11
2024-03-09T10:27:13.940Z,51.94
2024-03-09T10:28:14.011Z,54.89
2024-03-09T10:29:14.112Z,51.00
2024-03-09T10:30:14.152Z,51.65
2024-03-09T10:31:14.156Z,51.84
2024-03-09T10:32:14.434Z,51.21
2024-03-09T10:33:14.363Z,50.06
2024-03-09T10:34:14.463Z,52.97
2024-03-09T10:35:14.570Z,50.77
2024-03-09T10:36:14.472Z,54.74
2024-03-09T10:37:14.543Z,52.19
2024-03-09T10:38:14.933Z,50.00
2024-03-09T10:39:14.684Z,52.35
2024-03-09T10:40:14.850Z,50.00
2024-03-09T10:41:14.923Z,51.84
2024-03-09T10:42:14.891Z,51.68
2024-03-09T10:43:14.914Z,51.66
2024-03-09T10:44:15.117Z,56.00
2024-03-09T10:45:14.998Z,52.10
2024-03-09T10:46:15.062Z,54.32
2024-03-09T10:47:15.228Z,53.69
2024-03-09T10:48:15.230Z,55.49
2024-03-09T10:49:15.198Z,53.60
2024-03-09T10:50:15.305Z,52.72
2024-03-09T10:51:15.312Z,54.17
2024-03-09T10:52:15.371Z,54.31
2024-03-09T10:53:15.548Z,54.71
2024-03-09T10:54:15.528Z,51.21
2024-03-09T10:55:15.602Z,53.50
2024-03-09T10:56:20.652Z,50.02
2024-03-09T10:57:15.656Z,50.15
2024-03-09T10:58:15.659Z,50.29
2024-03-09T10:59:15.904Z,50.19
2024-03-09T11:00:15.692Z,49.21
2024-03-09T11:01:15.724Z,46.58
2024-03-09T11:02:15.739Z,52.88
2024-03-09T11:03:15.687Z,52.59
2024-03-09T11:04:15.683Z,54.12
2024-03-09T11:05:15.819Z,52.51
2024-03-09T11:06:15.680Z,55.14
2024-03-09T11:07:15.708Z,57.90
2024-03-09T11:08:15.796Z,55.95
2024-03-09T11:09:15.682Z,55.03
2024-03-09T11:10:15.715Z,59.98
2024-03-09T11:11:15.793Z,63.17
2024-03-09T11:12:15.769Z,64.05
2024-03-09T11:13:15.734Z,63.11
2024-03-09T11:14:15.797Z,63.68
2024-03-09T11:15:15.735Z,61.77
2024-03-09T11:16:15.754Z,64.95
2024-03-09T11:17:15.775Z,65.96
2024-03-09T11:18:15.796Z,63.73
2024-03-09T11:19:15.782Z,63.69
2024-03-09T11:20:15.832Z,64.97
2024-03-09T11:21:15.847Z,62.30
2024-03-09T11:22:15.836Z,62.19
2024-03-09T11:23:15.981Z,63.32
2024-03-09T11:24:15.954Z,67.94
2024-03-09T11:25:16.013Z,67.34
2024-03-09T11:26:16.183Z,67.51
2024-03-09T11:27:16.166Z,67.62
2024-03-09T11:28:16.792Z,65.10
2024-03-09T11:29:16.342Z,65.17
2024-03-09T11:30:16.335Z,66.50
2024-03-09T11:31:16.359Z,68.20
2024-03-09T11:32:16.508Z,65.69
2024-03-09T11:33:16.508Z,66.72
2024-03-09T11:34:16.564Z,67.47
2024-03-09T11:35:16.689Z,66.12
2024-03-09T11:36:16.666Z,70.21
2024-03-09T11:37:16.703Z,68.66
2024-03-09T11:38:16.861Z,69.23
2024-03-09T11:39:16.870Z,67.03
2024-03-09T11:40:16.882Z,69.66
2024-03-09T11:41:17.147Z,67.64
2024-03-09T11:42:17.005Z,69.76
2024-03-09T11:43:17.056Z,66.24
2024-03-09T11:44:17.166Z,65.36
2024-03-09T11:45:17.182Z,65.85
2024-03-09T11:46:17.233Z,65.75
2024-03-09T11:47:17.385Z,62.15
2024-03-09T11:48:17.420Z,64.88
2024-03-09T11:49:17.428Z,62.15
2024-03-09T11:50:17.557Z,64.14
2024-03-09T11:51:17.548Z,62.08
2024-03-09T11:52:17.611Z,63.09
2024-03-09T11:53:17.713Z,62.92
2024-03-09T11:54:17.730Z,64.49
2024-03-09T11:55:17.777Z,62.40
2024-03-09T11:56:17.892Z,64.51
2024-03-09T11:57:17.899Z,64.13
2024-03-09T11:58:17.942Z,66.12
2024-03-09T11:59:18.123Z,63.16
2024-03-09T12:00:18.062Z,64.28
2024-03-09T12:01:18.159Z,63.75
2024-03-09T12:02:18.246Z,62.06
2024-03-09T12:03:18.251Z,63.41
2024-03-09T12:04:18.329Z,61.98
2024-03-09T12:05:18.590Z,62.46
2024-03-09T12:06:18.482Z,61.03
2024-03-09T12:07:18.532Z,59.44
2024-03-09T12:08:18.718Z,60.79
2024-03-09T12:09:18.665Z,62.57
2024-03-09T12:10:18.744Z,64.79
2024-03-09T12:11:18.944Z,61.89
2024-03-09T12:12:18.947Z,60.09
2024-03-09T12:13:18.933Z,59.98
2024-03-09T12:14:19.056Z,59.97
2024-03-09T12:15:19.089Z,62.28
2024-03-09T12:16:19.143Z,60.05
2024-03-09T12:17:19.268Z,58.02
2024-03-09T12:18:19.275Z,59.84
2024-03-09T12:19:19.348Z,55.27
2024-03-09T12:20:19.507Z,57.37
2024-03-09T12:21:19.513Z,55.90
2024-03-09T12:22:19.569Z,54.58
2024-03-09T12:23:19.656Z,55.98
2024-03-09T12:24:19.690Z,55.20
2024-03-09T12:25:19.748Z,57.12
2024-03-09T12:26:19.903Z,55.93
2024-03-09T12:27:19.900Z,58.38
2024-03-09T12:28:19.978Z,60.35
2024-03-09T12:29:20.101Z,57.99
2024-03-09T12:30:20.129Z,59.76
2024-03-09T12:31:20.161Z,60.07
2024-03-09T12:32:20.281Z,60.54
2024-03-09T12:33:20.378Z,58.83
2024-03-09T12:34:20.367Z,60.42
2024-03-09T12:35:20.548Z,60.59
2024-03-09T12:36:20.539Z,58.70
2024-03-09T12:37:20.579Z,58.73
2024-03-09T12:38:20.711Z,58.42
2024-03-09T12:39:20.734Z,60.00
2024-03-09T12:40:20.847Z,59.12
2024-03-09T12:41:20.883Z,60.97
2024-03-09T12:42:20.908Z,59.16
2024-03-09T12:43:20.973Z,63.55
2024-03-09T12:44:21.267Z,61.54
2024-03-09T12:45:21.108Z,63.32
2024-03-09T12:46:21.241Z,62.22
2024-03-09T12:47:21.347Z,64.17
2024-03-09T12:48:21.308Z,62.49
2024-03-09T12:49:21.489Z,62.95
2024-03-09T12:50:21.477Z,61.36
2024-03-09T12:51:21.529Z,62.71
2024-03-09T12:52:21.639Z,58.18
2024-03-09T12:53:21.734Z,62.66
2024-03-09T12:54:21.745Z,63.78
2024-03-09T12:55:21.806Z,63.52
2024-03-09T12:56:21.955Z,63.65
2024-03-09T12:57:21.933Z,61.17
2024-03-09T12:58:21.993Z,60.79
2024-03-09T12:59:22.649Z,62.03
2024-03-09T13:00:22.130Z,61.54
2024-03-09T13:01:22.264Z,61.42
2024-03-09T13:02:22.287Z,59.41
2024-03-09T13:03:22.305Z,60.28
2024-03-09T13:04:22.346Z,60.40
2024-03-09T13:05:22.438Z,61.63
2024-03-09T13:06:22.463Z,61.08
2024-03-09T13:07:22.504Z,59.82
2024-03-09T13:08:22.598Z,59.76
2024-03-09T13:09:22.589Z,59.86
2024-03-09T13:10:22.684Z,61.51
2024-03-09T13:11:22.910Z,61.18
2024-03-09T13:12:23.640Z,60.13
2024-03-09T13:13:22.911Z,60.98
2024-03-09T13:14:23.489Z,61.12
2024-03-09T13:15:22.919Z,57.54
2024-03-09T13:16:22.965Z,59.74
2024-03-09T13:17:23.059Z,58.35
2024-03-09T13:18:23.057Z,59.06
2024-03-09T13:19:23.103Z,55.96
2024-03-09T13:20:23.207Z,55.60
2024-03-09T13:21:23.212Z,57.47
2024-03-09T13:22:23.248Z,56.08
2024-03-09T13:23:23.361Z,56.89
2024-03-09T13:24:23.887Z,55.29
2024-03-09T13:25:23.375Z,54.66
2024-03-09T13:26:23.471Z,55.63
2024-03-09T13:27:23.475Z,55.46
2024-03-09T13:28:23.506Z,55.16
2024-03-09T13:29:23.577Z,55.60
2024-03-09T13:30:23.595Z,55.24
2024-03-09T13:31:23.636Z,54.27
2024-03-09T13:32:23.729Z,54.79
2024-03-09T13:33:23.730Z,55.06
2024-03-09T13:34:23.872Z,57.52
2024-03-09T13:35:23.906Z,53.27
2024-03-09T13:36:23.858Z,54.87
2024-03-09T13:37:23.904Z,57.72
2024-03-09T13:38:24.011Z,53.91
2024-03-09T13:39:24.566Z,55.27
2024-03-09T13:40:24.138Z,54.99
2024-03-09T13:41:24.200Z,58.81